Time;durP1;ratioP1;P1;durP2;ratioP2;P2;SDS_P1;SDS_P2;PMS_P1;PMS_P2;Temp;Humidity;BMP_temperature;BMP_pressure;BME280_temperature;BME280_humidity;BME280_pressure;Samples;Min_cycle;Max_cycle;Signal;HPM_P1;HPM_P2
2022/05/31 00:00:37;;;;;;;7.80;6.90;;;;;;;18.62;51.00;100276.09;117350;1185;21844;-52
2022/05/31 00:03:11;;;;;;;10.20;7.10;;;;;;;18.62;51.06;100280.02;117138;1186;21865;-51
2022/05/31 00:05:38;;;;;;;9.20;7.20;;;;;;;18.60;51.09;100280.98;117125;1182;23203;-56
2022/05/31 00:08:05;;;;;;;7.90;6.80;;;;;;;18.58;51.18;100276.79;117267;1185;22838;-52
2022/05/31 00:10:32;;;;;;;8.00;7.20;;;;;;;18.57;51.13;100279.48;117240;1186;22307;-55
2022/05/31 00:13:00;;;;;;;12.10;7.90;;;;;;;18.58;51.20;100276.78;117026;1188;21842;-52
2022/05/31 00:15:28;;;;;;;10.30;8.10;;;;;;;18.53;51.20;100283.79;117055;1189;21865;-56
2022/05/31 00:17:55;;;;;;;7.90;7.10;;;;;;;18.51;51.22;100283.73;116935;1185;22920;-57
2022/05/31 00:20:22;;;;;;;11.30;7.50;;;;;;;18.53;51.20;100281.14;117178;1183;23571;-56
2022/05/31 00:22:49;;;;;;;11.10;7.90;;;;;;;18.53;51.27;100283.77;117137;1184;23637;-56
2022/05/31 00:25:17;;;;;;;10.40;8.40;;;;;;;18.54;51.31;100285.01;116914;1188;23547;-56
2022/05/31 00:27:44;;;;;;;12.60;8.50;;;;;;;18.51;51.21;100290.28;117138;1188;22627;-56
2022/05/31 00:30:13;;;;;;;10.70;7.60;;;;;;;18.47;51.31;100287.30;117278;1186;24158;-56
2022/05/31 00:32:47;;;;;;;9.50;8.30;;;;;;;18.43;51.21;100285.14;117348;1185;23621;-55
2022/05/31 00:35:16;;;;;;;9.90;9.00;;;;;;;18.40;51.32;100285.08;117283;1189;22964;-56
2022/05/31 00:37:44;;;;;;;10.90;8.80;;;;;;;18.41;51.35;100284.14;117131;1182;22921;-54
2022/05/31 00:40:13;;;;;;;11.00;9.10;;;;;;;18.44;51.44;100279.94;117137;1188;23599;-51
2022/05/31 00:42:48;;;;;;;13.60;9.40;;;;;;;18.48;51.50;100278.34;117019;1187;21868;-56
2022/05/31 00:45:16;;;;;;;11.40;9.10;;;;;;;18.50;51.52;100278.23;117339;1185;22961;-56
2022/05/31 00:47:43;;;;;;;10.20;9.10;;;;;;;18.53;51.59;100280.94;117313;1180;21847;-56
2022/05/31 00:50:14;;;;;;;12.60;10.60;;;;;;;18.55;51.57;100279.95;116996;1187;23548;-56
2022/05/31 00:52:48;;;;;;;;;;;;;;;18.57;51.53;100281.45;117118;1185;22921;-56
2022/05/31 00:55:22;;;;;;;10.30;9.20;;;;;;;18.56;51.64;100282.60;117313;1186;22626;-52
2022/05/31 00:58:12;;;;;;;13.70;9.30;;;;;;;18.55;51.71;100279.79;117363;1184;23550;-51
2022/05/31 01:00:39;;;;;;;11.30;9.60;;;;;;;18.52;51.86;100276.38;117309;1186;23011;-51
2022/05/31 01:03:07;;;;;;;12.50;10.00;;;;;;;18.51;51.89;100276.77;117303;1186;22972;-50
2022/05/31 01:05:34;;;;;;;11.90;9.70;;;;;;;18.56;51.79;100279.91;117294;1185;23484;-51
2022/05/31 01:08:01;;;;;;;11.20;10.00;;;;;;;18.59;51.77;100273.55;117504;1183;22975;-56
2022/05/31 01:10:28;;;;;;;11.10;9.90;;;;;;;18.59;51.85;100273.21;117323;1182;23480;-54
2022/05/31 01:12:56;;;;;;;11.40;9.70;;;;;;;18.58;51.75;100277.50;117161;1183;22920;-52
2022/05/31 01:15:23;;;;;;;11.10;9.40;;;;;;;18.58;51.92;100285.86;117241;1185;23616;-51
2022/05/31 01:17:50;;;;;;;11.10;9.90;;;;;;;18.61;51.73;100288.03;117470;1183;23723;-56
2022/05/31 01:20:19;;;;;;;11.70;9.70;;;;;;;18.61;51.74;100290.87;117279;1183;22990;-51
2022/05/31 01:22:46;;;;;;;12.00;10.30;;;;;;;18.60;51.69;100288.98;117326;1189;23466;-55
2022/05/31 01:25:23;;;;;;;11.20;10.00;;;;;;;18.59;51.74;100285.66;117090;1187;21894;-56
2022/05/31 01:28:23;;;;;;;12.00;10.70;;;;;;;18.58;51.85;100286.92;117154;1185;21872;-55
2022/05/31 01:31:30;;;;;;;12.00;10.80;;;;;;;18.59;51.77;100288.13;117027;1187;22923;-51
2022/05/31 01:34:20;;;;;;;11.60;9.80;;;;;;;18.61;51.81;100284.48;116976;1187;21857;-55
2022/05/31 01:36:49;;;;;;;12.50;11.10;;;;;;;18.60;51.86;100283.11;117302;1185;22987;-56
2022/05/31 01:39:47;;;;;;;11.10;10.00;;;;;;;18.61;51.83;100276.14;117305;1185;21845;-55
2022/05/31 01:42:24;;;;;;;11.40;10.20;;;;;;;18.60;51.91;100280.60;117169;1189;21856;-56
2022/05/31 01:45:05;;;;;;;11.20;9.90;;;;;;;18.58;51.97;100281.77;117163;1182;22982;-51
2022/05/31 01:47:33;;;;;;;11.60;9.70;;;;;;;18.55;51.88;100285.79;117315;1185;22852;-51
2022/05/31 01:50:00;;;;;;;12.00;10.40;;;;;;;18.54;51.95;100283.59;117309;1185;21853;-55
2022/05/31 01:52:27;;;;;;;12.10;10.10;;;;;;;18.51;51.89;100283.20;117053;1186;23437;-56
2022/05/31 01:54:54;;;;;;;14.40;11.20;;;;;;;18.50;51.99;100283.60;117300;1186;22960;-55
2022/05/31 01:57:21;;;;;;;13.20;11.00;;;;;;;18.50;51.94;100283.42;117094;1186;23643;-56
2022/05/31 02:00:00;;;;;;;13.10;10.50;;;;;;;18.51;52.03;100284.79;117172;1186;23008;-56
2022/05/31 02:02:27;;;;;;;12.30;10.80;;;;;;;18.51;51.98;100282.46;117315;1183;22980;-56
2022/05/31 02:04:54;;;;;;;12.30;10.10;;;;;;;18.49;52.13;100285.23;117268;1186;23621;-51
2022/05/31 02:07:22;;;;;;;12.90;10.60;;;;;;;18.50;52.17;100287.48;117170;1188;22087;-55
2022/05/31 02:09:51;;;;;;;12.40;10.50;;;;;;;18.51;52.14;100287.98;117287;1186;21849;-51
2022/05/31 02:12:27;;;;;;;11.80;10.50;;;;;;;18.52;52.11;100287.56;117189;1188;21849;-53
2022/05/31 02:14:54;;;;;;;12.10;10.10;;;;;;;18.53;52.03;100289.49;117194;1187;23631;-50
2022/05/31 02:17:21;;;;;;;13.60;11.30;;;;;;;18.53;52.00;100293.77;117258;1188;21960;-51
2022/05/31 02:19:48;;;;;;;14.00;10.80;;;;;;;18.52;52.13;100298.77;117134;1188;23443;-55
2022/05/31 02:22:17;;;;;;;14.40;11.00;;;;;;;18.48;52.29;100302.48;117309;1186;21849;-51
2022/05/31 02:24:44;;;;;;;12.90;11.20;;;;;;;18.51;52.18;100312.67;117375;1183;21985;-56
2022/05/31 02:27:11;;;;;;;14.70;11.70;;;;;;;18.51;52.27;100310.73;117255;1183;22907;-56
2022/05/31 02:29:39;;;;;;;12.80;10.20;;;;;;;18.51;52.19;100310.37;117297;1186;24245;-56
2022/05/31 02:32:07;;;;;;;12.80;10.70;;;;;;;18.47;52.23;100308.40;117228;1185;22162;-56
2022/05/31 02:34:37;;;;;;;14.20;10.60;;;;;;;18.45;52.37;100310.81;117156;1188;21883;-56
2022/05/31 02:37:04;;;;;;;12.80;10.70;;;;;;;18.44;52.47;100310.84;117222;1182;22100;-57
2022/05/31 02:39:31;;;;;;;12.70;11.30;;;;;;;18.43;52.43;100312.69;117252;1186;21855;-56
2022/05/31 02:41:58;;;;;;;12.40;11.10;;;;;;;18.43;52.45;100311.77;117198;1185;22966;-56
2022/05/31 02:44:25;;;;;;;16.60;11.80;;;;;;;18.45;52.61;100310.48;117048;1185;21851;-56
2022/05/31 02:46:52;;;;;;;13.00;11.60;;;;;;;18.45;52.61;100311.16;116950;1187;21847;-55
2022/05/31 02:49:19;;;;;;;13.40;11.50;;;;;;;18.45;52.65;100309.02;117108;1187;23040;-56
2022/05/31 02:51:47;;;;;;;15.40;12.30;;;;;;;18.46;52.68;100305.60;117065;1188;22619;-56
2022/05/31 02:54:15;;;;;;;13.60;11.50;;;;;;;18.49;52.64;100313.27;117153;1186;21828;-56
2022/05/31 02:56:42;;;;;;;13.10;11.50;;;;;;;18.52;52.72;100313.70;116944;1187;22158;-55
2022/05/31 02:59:09;;;;;;;12.90;11.40;;;;;;;18.54;52.77;100318.19;117104;1187;22926;-56
2022/05/31 03:01:37;;;;;;;16.60;12.00;;;;;;;18.56;52.79;100318.44;116997;1187;21946;-51
2022/05/31 03:04:05;;;;;;;15.00;11.70;;;;;;;18.59;52.71;100320.27;118160;1186;21856;-56
2022/05/31 03:06:32;;;;;;;14.50;11.80;;;;;;;18.62;52.71;100318.92;117031;1187;22188;-51
2022/05/31 03:08:59;;;;;;;15.50;12.10;;;;;;;18.64;52.94;100323.08;117063;1187;22975;-55
2022/05/31 03:11:52;;;;;;;14.10;12.10;;;;;;;18.67;52.86;100326.13;117000;1184;23713;-56
2022/05/31 03:14:28;;;;;;;14.50;11.00;;;;;;;18.72;52.91;100328.77;117223;1186;22975;-56
2022/05/31 03:17:06;;;;;;;13.10;11.40;;;;;;;18.76;53.02;100335.16;117143;1187;23009;-51
2022/05/31 03:19:35;;;;;;;13.80;12.10;;;;;;;18.80;52.99;100333.70;117018;1183;23631;-55
2022/05/31 03:22:06;;;;;;;16.20;11.70;;;;;;;18.84;53.13;100331.02;117113;1186;23531;-56
2022/05/31 03:24:38;;;;;;;14.10;11.60;;;;;;;18.88;53.11;100331.71;117358;1186;22176;-54
2022/05/31 03:27:06;;;;;;;13.40;11.90;;;;;;;18.94;53.13;100333.79;117285;1184;26352;-53
2022/05/31 03:29:35;;;;;;;12.90;11.50;;;;;;;18.98;53.19;100329.70;117087;1187;22244;-55
2022/05/31 03:32:03;;;;;;;16.00;11.40;;;;;;;19.03;53.19;100330.69;117299;1182;22623;-55
2022/05/31 03:34:32;;;;;;;13.40;11.90;;;;;;;19.09;53.30;100322.91;117360;1186;22768;-56
2022/05/31 03:36:59;;;;;;;13.90;12.30;;;;;;;19.15;53.31;100324.77;117084;1186;21851;-55
2022/05/31 03:39:26;;;;;;;13.70;12.10;;;;;;;19.21;53.33;100324.68;117111;1188;21896;-56
2022/05/31 03:41:53;;;;;;;15.20;12.50;;;;;;;19.26;53.25;100322.64;117122;1183;22920;-52
2022/05/31 03:44:20;;;;;;;16.10;13.10;;;;;;;19.31;53.27;100324.34;117335;1183;22990;-56
2022/05/31 03:46:47;;;;;;;13.70;12.30;;;;;;;19.37;53.34;100324.45;117076;1188;22821;-52
2022/05/31 03:49:15;;;;;;;15.70;12.40;;;;;;;19.42;53.38;100323.63;117074;1189;23456;-54
2022/05/31 03:51:41;;;;;;;13.80;12.40;;;;;;;19.48;53.32;100323.18;117174;1188;23574;-56
2022/05/31 03:54:08;;;;;;;14.50;11.50;;;;;;;19.55;53.41;100325.48;117133;1183;21847;-56
2022/05/31 03:56:36;;;;;;;13.40;12.10;;;;;;;19.61;53.47;100324.98;117069;1188;22805;-55
2022/05/31 03:59:03;;;;;;;14.00;12.40;;;;;;;19.68;53.44;100330.66;117071;1187;23592;-54
2022/05/31 04:01:30;;;;;;;14.20;12.80;;;;;;;19.75;53.52;100331.06;117309;1185;24163;-55
2022/05/31 04:03:58;;;;;;;15.70;11.80;;;;;;;19.82;53.54;100332.66;117189;1186;21850;-53
2022/05/31 04:06:25;;;;;;;14.10;12.40;;;;;;;19.88;53.66;100334.64;116876;1187;22994;-55
2022/05/31 04:08:53;;;;;;;15.80;11.80;;;;;;;19.96;53.75;100334.27;116925;1187;21857;-55
2022/05/31 04:11:21;;;;;;;14.00;12.60;;;;;;;20.05;53.68;100335.77;116863;1187;23506;-56
2022/05/31 04:13:47;;;;;;;13.70;12.00;;;;;;;20.13;53.75;100327.87;117258;1186;24223;-56
2022/05/31 04:16:16;;;;;;;13.30;11.90;;;;;;;20.21;53.72;100328.16;117261;1188;21911;-56
2022/05/31 04:18:49;;;;;;;14.00;11.90;;;;;;;20.31;53.81;100327.82;117274;1186;22962;-54
2022/05/31 04:21:19;;;;;;;13.50;11.80;;;;;;;20.40;53.80;100333.90;117223;1189;21852;-55
2022/05/31 04:23:58;;;;;;;13.40;11.80;;;;;;;20.49;53.78;100337.52;117301;1186;21849;-54
2022/05/31 04:26:26;;;;;;;12.80;11.20;;;;;;;20.57;53.84;100337.81;117280;1186;21852;-56
2022/05/31 04:28:53;;;;;;;13.60;12.20;;;;;;;20.70;53.91;100341.39;117285;1183;22646;-54
2022/05/31 04:31:20;;;;;;;13.30;12.00;;;;;;;20.80;53.91;100344.59;117348;1186;21895;-56
2022/05/31 04:33:47;;;;;;;14.60;13.20;;;;;;;20.92;54.02;100343.75;117149;1185;22980;-54
2022/05/31 04:36:16;;;;;;;15.90;13.90;;;;;;;21.06;54.07;100341.02;117320;1188;21843;-55
2022/05/31 04:38:43;;;;;;;13.80;12.20;;;;;;;21.19;54.01;100340.30;117093;1187;22939;-55
2022/05/31 04:41:22;;;;;;;15.70;14.20;;;;;;;21.31;54.03;100337.63;117185;1182;23037;-54
2022/05/31 04:43:51;;;;;;;13.60;11.40;;;;;;;21.45;54.10;100334.71;116991;1182;21864;-56
2022/05/31 04:46:20;;;;;;;13.30;12.00;;;;;;;21.55;54.02;100334.81;117173;1186;22988;-54
2022/05/31 04:48:48;;;;;;;12.40;11.10;;;;;;;21.67;54.06;100335.95;117042;1186;22896;-56
2022/05/31 04:51:15;;;;;;;11.00;9.90;;;;;;;21.78;54.12;100335.27;117193;1186;21895;-56
2022/05/31 04:53:43;;;;;;;12.90;10.30;;;;;;;21.87;54.02;100336.20;117083;1183;23550;-58
2022/05/31 04:56:17;;;;;;;12.30;10.10;;;;;;;21.95;54.10;100335.55;117179;1186;21860;-54
2022/05/31 04:58:48;;;;;;;12.30;11.10;;;;;;;22.04;54.19;100333.23;117290;1182;21855;-56
2022/05/31 05:01:15;;;;;;;13.80;10.00;;;;;;;22.15;54.08;100336.10;117245;1182;22911;-54
2022/05/31 05:03:44;;;;;;;11.60;9.40;;;;;;;22.26;54.12;100334.89;117067;1188;21977;-54
2022/05/31 05:06:12;;;;;;;10.50;9.40;;;;;;;22.36;54.03;100338.75;117279;1190;21857;-54
2022/05/31 05:08:39;;;;;;;13.10;9.80;;;;;;;22.50;54.03;100339.50;117362;1182;22564;-55
2022/05/31 05:11:09;;;;;;;11.40;9.20;;;;;;;22.65;54.12;100338.23;117193;1183;23295;-55
2022/05/31 05:13:36;;;;;;;15.70;9.60;;;;;;;22.83;54.20;100340.64;117272;1185;22934;-55
2022/05/31 05:16:03;;;;;;;19.20;10.30;;;;;;;23.04;54.32;100348.23;117151;1182;21856;-55
2022/05/31 05:18:30;;;;;;;10.50;9.10;;;;;;;23.23;54.45;100347.55;117209;1183;21994;-56
2022/05/31 05:20:59;;;;;;;9.80;8.60;;;;;;;23.43;54.33;100351.30;117237;1183;22979;-56
2022/05/31 05:23:26;;;;;;;10.10;7.70;;;;;;;23.55;54.34;100349.06;117182;1183;23545;-56
2022/05/31 05:25:54;;;;;;;8.80;7.80;;;;;;;23.65;54.24;100352.89;117050;1186;22021;-57
2022/05/31 05:31:28;;;;;;;9.60;7.60;;;;;;;23.88;54.04;100358.26;117153;1188;21857;-57
2022/05/31 05:33:55;;;;;;;9.30;7.70;;;;;;;24.07;54.10;100361.48;117189;1185;21848;-55
2022/05/31 05:36:22;;;;;;;8.00;7.20;;;;;;;24.24;54.20;100366.77;117257;1185;23437;-56
2022/05/31 05:38:50;;;;;;;10.10;7.50;;;;;;;24.40;54.27;100373.02;117298;1186;21855;-56
2022/05/31 05:41:17;;;;;;;8.10;7.30;;;;;;;24.56;54.33;100375.30;117206;1183;21848;-56
2022/05/31 05:43:44;;;;;;;9.50;7.70;;;;;;;24.77;54.43;100378.67;117199;1182;23593;-56
2022/05/31 05:46:22;;;;;;;9.10;6.90;;;;;;;24.98;54.32;100376.67;117209;1185;21852;-57
2022/05/31 05:48:50;;;;;;;10.20;7.30;;;;;;;25.24;54.45;100380.11;117235;1189;23577;-56
2022/05/31 05:51:31;;;;;;;11.00;7.30;;;;;;;25.49;54.48;100377.09;117160;1182;24183;-56
2022/05/31 05:53:58;;;;;;;11.80;7.70;;;;;;;25.67;54.33;100378.41;116962;1187;21843;-56
2022/05/31 05:56:25;;;;;;;11.20;7.40;;;;;;;25.85;54.32;100378.67;117400;1182;23569;-57
2022/05/31 05:58:52;;;;;;;14.40;8.70;;;;;;;26.01;54.27;100377.43;117369;1185;23362;-57
2022/05/31 06:01:25;;;;;;;12.90;7.80;;;;;;;26.21;54.28;100381.27;117382;1183;24682;-57
2022/05/31 06:04:02;;;;;;;18.40;9.50;;;;;;;26.43;54.18;100378.73;117277;1183;22918;-57
2022/05/31 06:06:31;;;;;;;11.00;7.80;;;;;;;26.59;54.12;100379.24;117069;1189;21905;-56
2022/05/31 06:09:01;;;;;;;7.60;6.50;;;;;;;26.74;54.19;100381.80;117331;1186;23442;-57
2022/05/31 06:11:32;;;;;;;9.80;5.90;;;;;;;26.91;54.19;100376.90;117387;1182;22623;-57
2022/05/31 06:14:01;;;;;;;7.70;6.30;;;;;;;27.05;53.92;100375.92;117258;1183;22921;-57
2022/05/31 06:16:31;;;;;;;7.20;6.20;;;;;;;27.27;54.16;100375.61;117196;1182;23593;-56
2022/05/31 06:19:04;;;;;;;10.50;6.30;;;;;;;27.53;54.17;100372.91;117283;1186;21962;-56
2022/05/31 06:21:31;;;;;;;7.20;5.70;;;;;;;27.74;54.09;100373.13;117054;1182;22536;-56
2022/05/31 06:23:58;;;;;;;6.50;5.60;;;;;;;27.99;54.07;100371.77;117075;1182;22980;-56
2022/05/31 06:26:30;;;;;;;9.80;6.00;;;;;;;28.22;53.94;100370.56;116967;1187;22066;-56
2022/05/31 06:28:57;;;;;;;6.90;5.40;;;;;;;28.47;54.17;100365.84;117158;1186;22104;-56
2022/05/31 06:31:24;;;;;;;7.60;5.30;;;;;;;28.76;53.96;100365.82;117202;1183;22739;-56
2022/05/31 06:33:51;;;;;;;6.20;5.10;;;;;;;29.01;54.01;100362.56;117295;1186;22170;-57
2022/05/31 06:36:18;;;;;;;8.10;4.90;;;;;;;29.22;53.86;100363.84;117320;1186;22985;-57
2022/05/31 06:38:47;;;;;;;6.10;4.40;;;;;;;29.41;53.75;100365.20;117118;1186;22171;-57
2022/05/31 06:41:14;;;;;;;6.00;4.70;;;;;;;29.62;53.67;100365.63;117214;1187;22961;-57
2022/05/31 06:43:41;;;;;;;8.20;5.30;;;;;;;29.86;53.73;100368.48;117189;1182;23586;-56
2022/05/31 06:46:10;;;;;;;6.30;4.90;;;;;;;30.12;53.73;100369.10;117020;1187;21840;-56
2022/05/31 06:48:37;;;;;;;7.00;5.00;;;;;;;30.34;53.62;100368.33;117209;1188;22090;-56
2022/05/31 06:51:06;;;;;;;5.90;4.60;;;;;;;30.53;53.56;100369.03;117002;1187;22619;-57
2022/05/31 06:58:52;;;;;;;5.30;4.20;;;;;;;31.13;53.57;100373.18;117149;1186;22172;-56
2022/05/31 07:01:30;;;;;;;5.80;4.40;;;;;;;31.30;53.43;100371.52;117188;1186;21881;-56
2022/05/31 07:03:59;;;;;;;8.10;5.00;;;;;;;31.52;53.24;100374.40;117168;1186;21933;-56
2022/05/31 07:06:27;;;;;;;5.90;4.60;;;;;;;31.74;53.24;100371.62;118425;1186;23543;-56
2022/05/31 07:08:54;;;;;;;4.90;4.00;;;;;;;31.92;53.22;100375.41;117216;1186;22165;-56
2022/05/31 07:11:21;;;;;;;7.10;4.50;;;;;;;32.11;53.20;100376.19;117205;1185;21975;-56
2022/05/31 07:13:49;;;;;;;6.30;4.30;;;;;;;32.30;52.98;100378.44;117286;1182;21937;-55
2022/05/31 07:16:15;;;;;;;8.30;4.50;;;;;;;32.42;53.03;100380.48;117256;1186;21865;-56
2022/05/31 07:18:42;;;;;;;5.70;4.60;;;;;;;32.58;52.90;100384.20;117126;1188;21843;-56
2022/05/31 07:21:09;;;;;;;7.60;4.40;;;;;;;32.74;52.76;100383.11;117135;1182;23568;-55
2022/05/31 07:23:38;;;;;;;6.10;4.50;;;;;;;32.81;52.60;100384.58;117220;1186;21851;-55
2022/05/31 07:26:05;;;;;;;8.20;4.20;;;;;;;32.87;52.43;100383.26;117238;1186;21853;-56
2022/05/31 07:28:52;;;;;;;6.40;4.40;;;;;;;33.02;52.42;100385.22;117314;1182;21891;-56
2022/05/31 07:31:19;;;;;;;8.30;4.40;;;;;;;33.21;52.51;100386.52;117173;1183;23589;-57
2022/05/31 07:33:47;;;;;;;5.50;4.20;;;;;;;33.39;52.47;100384.95;117277;1186;21855;-56
2022/05/31 07:36:14;;;;;;;5.40;4.30;;;;;;;33.50;52.29;100386.29;117266;1183;23548;-57
2022/05/31 07:38:41;;;;;;;6.90;4.50;;;;;;;33.50;52.10;100390.07;117344;1183;22886;-57
2022/05/31 07:41:09;;;;;;;5.00;3.90;;;;;;;33.62;52.19;100395.53;117239;1183;23570;-58
2022/05/31 07:43:36;;;;;;;7.40;3.50;;;;;;;33.83;52.27;100396.46;117194;1183;22911;-56
2022/05/31 07:46:06;;;;;;;5.30;3.20;;;;;;;34.07;52.02;100396.02;117136;1182;21865;-56
2022/05/31 07:48:37;;;;;;;5.80;3.90;;;;;;;34.27;51.69;100397.23;117240;1188;22942;-58
2022/05/31 07:51:04;;;;;;;5.10;3.80;;;;;;;34.31;51.56;100401.88;117516;1187;21858;-56
2022/05/31 07:53:32;;;;;;;6.40;3.40;;;;;;;34.46;51.57;100398.96;117292;1182;23987;-56
2022/05/31 07:56:06;;;;;;;8.70;3.80;;;;;;;34.54;51.34;100396.12;117319;1186;21858;-57
2022/05/31 07:58:35;;;;;;;6.50;3.60;;;;;;;34.66;51.47;100399.78;117085;1189;22910;-57
2022/05/31 08:01:04;;;;;;;4.90;3.00;;;;;;;34.75;51.50;100396.36;117283;1186;23365;-56
2022/05/31 08:03:31;;;;;;;6.50;3.50;;;;;;;34.89;51.40;100393.14;118145;1185;22913;-57
2022/05/31 08:06:02;;;;;;;4.10;3.00;;;;;;;35.13;51.29;100393.54;117271;1183;21819;-57
2022/05/31 08:08:29;;;;;;;4.80;3.10;;;;;;;35.32;51.10;100390.20;117104;1187;23512;-57
2022/05/31 08:11:06;;;;;;;4.30;3.20;;;;;;;35.46;50.87;100383.83;117111;1188;22085;-57
2022/05/31 08:13:32;;;;;;;6.00;3.20;;;;;;;35.65;50.85;100384.02;117151;1183;22440;-56
2022/05/31 08:16:00;;;;;;;7.80;3.20;;;;;;;35.78;50.75;100382.30;117216;1189;22936;-54
2022/05/31 08:18:27;;;;;;;7.10;3.50;;;;;;;35.83;50.62;100381.48;117244;1185;22613;-57
2022/05/31 08:21:01;;;;;;;7.90;3.00;;;;;;;35.91;50.45;100384.73;117332;1183;24243;-58
2022/05/31 08:23:29;;;;;;;7.80;3.40;;;;;;;36.03;50.32;100382.04;117286;1185;21861;-56
2022/05/31 08:25:58;;;;;;;8.00;3.30;;;;;;;36.11;50.45;100380.14;117055;1186;21849;-56
2022/05/31 08:28:27;;;;;;;9.30;2.90;;;;;;;36.25;50.18;100387.39;117237;1186;23522;-55
2022/05/31 08:31:06;;;;;;;4.00;2.60;;;;;;;36.38;50.08;100383.14;117260;1183;23554;-56
2022/05/31 08:33:36;;;;;;;7.50;2.80;;;;;;;36.52;49.94;100381.21;117132;1186;21863;-56
2022/05/31 08:36:04;;;;;;;5.70;3.30;;;;;;;36.67;49.67;100379.94;117298;1183;24155;-56
2022/05/31 08:38:31;;;;;;;7.80;2.90;;;;;;;36.87;49.79;100383.82;117153;1182;23518;-56
2022/05/31 08:41:11;;;;;;;5.80;2.60;;;;;;;37.08;49.60;100386.45;117101;1186;22819;-57
2022/05/31 08:43:45;;;;;;;5.90;3.30;;;;;;;37.22;49.33;100386.64;117055;1186;21854;-57
2022/05/31 08:46:28;;;;;;;4.00;2.40;;;;;;;37.30;49.21;100387.69;117302;1182;22910;-56
2022/05/31 08:49:18;;;;;;;4.20;2.60;;;;;;;37.44;49.08;100383.50;117381;1186;21872;-55
2022/05/31 08:52:06;;;;;;;6.70;3.10;;;;;;;37.65;49.05;100381.30;117059;1186;21971;-55
2022/05/31 08:57:34;;;;;;;5.70;2.70;;;;;;;37.97;48.74;100378.83;117149;1186;21863;-55
2022/05/31 09:00:04;;;;;;;6.70;2.90;;;;;;;38.12;48.58;100378.89;117129;1182;23606;-56
2022/05/31 09:02:43;;;;;;;6.90;3.20;;;;;;;38.16;48.08;100380.80;117266;1183;22908;-55
2022/05/31 09:05:32;;;;;;;6.80;3.80;;;;;;;38.15;48.09;100382.05;117154;1187;23481;-56
2022/05/31 09:08:06;;;;;;;4.10;2.40;;;;;;;38.28;48.11;100385.89;116935;1186;21882;-56
2022/05/31 09:10:51;;;;;;;5.60;2.50;;;;;;;38.46;48.14;100384.95;117140;1182;23451;-55
2022/05/31 09:13:17;;;;;;;4.90;2.70;;;;;;;38.67;47.92;100385.79;117249;1186;22991;-55
2022/05/31 09:15:51;;;;;;;4.00;2.70;;;;;;;38.75;47.59;100389.16;117152;1182;21853;-55
2022/05/31 09:18:23;;;;;;;4.30;2.80;;;;;;;38.88;47.68;100390.12;117223;1188;21864;-55
2022/05/31 09:20:58;;;;;;;6.20;2.60;;;;;;;38.97;47.50;100394.77;117083;1188;21860;-56
2022/05/31 09:23:28;;;;;;;4.90;3.00;;;;;;;39.07;47.34;100391.76;117174;1188;21859;-56
2022/05/31 09:26:08;;;;;;;6.00;2.90;;;;;;;39.17;47.12;100386.63;117006;1182;21848;-56
2022/05/31 09:28:48;;;;;;;5.50;2.90;;;;;;;39.22;46.71;100385.70;117011;1188;21961;-56
2022/05/31 09:31:18;;;;;;;6.40;3.00;;;;;;;39.37;46.78;100388.55;117110;1186;22942;-55
2022/05/31 09:34:13;;;;;;;4.50;2.60;;;;;;;39.42;46.54;100390.04;116981;1184;21870;-55
2022/05/31 09:36:44;;;;;;;4.70;3.10;;;;;;;39.30;46.18;100389.75;117063;1183;22695;-56
2022/05/31 09:39:33;;;;;;;3.40;2.60;;;;;;;39.13;46.10;100391.82;117125;1188;21863;-56
2022/05/31 09:42:02;;;;;;;4.30;2.90;;;;;;;39.23;46.18;100390.58;117190;1186;22844;-57
2022/05/31 09:44:34;;;;;;;6.10;2.80;;;;;;;39.44;46.23;100391.83;117214;1183;21924;-55
2022/05/31 09:47:18;;;;;;;4.80;2.40;;;;;;;39.61;45.90;100396.89;117134;1185;23617;-55
2022/05/31 09:49:47;;;;;;;4.30;2.60;;;;;;;39.85;46.09;100392.46;117116;1186;22843;-55
2022/05/31 09:52:20;;;;;;;4.20;2.50;;;;;;;40.10;46.34;100396.01;117115;1182;22604;-55
2022/05/31 09:58:10;;;;;;;5.20;2.90;;;;;;;40.54;45.50;100388.66;117180;1186;23576;-54
2022/05/31 10:00:57;;;;;;;10.10;3.00;;;;;;;40.54;45.31;100391.26;117268;1186;21845;-54
2022/05/31 10:03:33;;;;;;;6.10;3.00;;;;;;;40.42;45.18;100388.83;116952;1188;22249;-55
2022/05/31 10:06:11;;;;;;;9.30;3.30;;;;;;;40.49;44.83;100385.67;117186;1183;22049;-55
2022/05/31 10:08:38;;;;;;;6.10;2.90;;;;;;;40.44;44.70;100391.48;117075;1186;22873;-56
2022/05/31 10:11:09;;;;;;;4.10;2.80;;;;;;;40.52;44.92;100392.78;117164;1183;21985;-55
2022/05/31 10:13:58;;;;;;;4.60;2.90;;;;;;;40.53;44.63;100394.36;117217;1188;21850;-55
2022/05/31 10:16:28;;;;;;;4.00;2.60;;;;;;;40.57;44.48;100394.89;116954;1186;21852;-56
2022/05/31 10:18:58;;;;;;;6.80;2.70;;;;;;;40.70;44.62;100395.02;117261;1186;23549;-56
2022/05/31 10:21:45;;;;;;;5.10;2.80;;;;;;;40.72;43.96;100394.38;117169;1186;24193;-55
2022/05/31 10:24:25;;;;;;;3.80;2.70;;;;;;;40.48;43.62;100394.27;117020;1185;22924;-55
2022/05/31 10:27:20;;;;;;;5.60;2.80;;;;;;;40.25;43.58;100395.09;117117;1182;22930;-56
2022/05/31 10:29:51;;;;;;;5.10;2.80;;;;;;;39.98;43.38;100395.42;117246;1186;24209;-55
2022/05/31 10:32:24;;;;;;;5.80;3.10;;;;;;;39.78;43.35;100395.25;117135;1188;21856;-56
2022/05/31 10:35:05;;;;;;;4.40;2.50;;;;;;;39.71;43.42;100392.52;117329;1183;23655;-56
2022/05/31 10:37:33;;;;;;;3.80;2.40;;;;;;;39.65;43.16;100389.00;117138;1186;23423;-55
2022/05/31 10:40:13;;;;;;;6.40;2.60;;;;;;;39.55;42.63;100392.64;117092;1183;23593;-56
2022/05/31 10:42:42;;;;;;;5.30;2.50;;;;;;;39.33;42.45;100386.87;117098;1182;22045;-55
2022/05/31 10:45:18;;;;;;;4.70;3.40;;;;;;;39.29;42.87;100382.30;117195;1186;21912;-56
2022/05/31 10:47:46;;;;;;;5.50;2.50;;;;;;;39.49;42.98;100383.27;117084;1187;23718;-55
2022/05/31 10:50:14;;;;;;;4.40;2.80;;;;;;;39.48;42.34;100388.01;117087;1186;24164;-55
2022/05/31 10:52:53;;;;;;;6.10;2.70;;;;;;;39.17;41.98;100385.95;117304;1183;21858;-57
2022/05/31 10:55:41;;;;;;;4.10;2.60;;;;;;;38.95;42.54;100386.77;117123;1186;23588;-57
2022/05/31 10:58:14;;;;;;;5.60;2.80;;;;;;;39.19;42.65;100384.13;117232;1182;21862;-58
2022/05/31 11:00:55;;;;;;;7.90;2.80;;;;;;;39.48;42.63;100384.96;117230;1182;23520;-55
2022/05/31 11:03:38;;;;;;;4.70;2.50;;;;;;;39.78;42.73;100382.11;117162;1182;21835;-56
2022/05/31 11:06:14;;;;;;;4.20;2.60;;;;;;;39.98;42.62;100380.29;117051;1185;22905;-55
2022/05/31 11:12:16;;;;;;;4.30;2.70;;;;;;;39.86;41.78;100370.76;117206;1185;22894;-55
2022/05/31 11:14:49;;;;;;;5.10;2.70;;;;;;;39.83;41.65;100374.52;117256;1186;23673;-55
2022/05/31 11:17:29;;;;;;;5.10;2.50;;;;;;;39.57;41.19;100376.04;117131;1188;21852;-56
2022/05/31 11:20:07;;;;;;;6.20;3.00;;;;;;;39.34;41.20;100380.11;117218;1182;23444;-55
2022/05/31 11:22:40;;;;;;;3.80;2.30;;;;;;;39.32;41.65;100375.69;116881;1189;21855;-55
2022/05/31 11:25:22;;;;;;;8.60;2.70;;;;;;;39.34;41.57;100377.91;117091;1182;23669;-55
2022/05/31 11:28:05;;;;;;;4.20;2.60;;;;;;;39.51;41.72;100377.68;117196;1186;21851;-55
2022/05/31 11:30:35;;;;;;;3.80;2.80;;;;;;;39.89;41.78;100375.08;117110;1183;23053;-55
2022/05/31 11:33:39;;;;;;;4.60;2.80;;;;;;;40.12;41.58;100375.17;117292;1182;23303;-55
2022/05/31 11:36:27;;;;;;;6.40;2.80;;;;;;;40.26;41.28;100372.75;117234;1182;23453;-55
2022/05/31 11:38:54;;;;;;;4.50;3.00;;;;;;;40.35;41.40;100369.43;117214;1183;22990;-56
2022/05/31 11:41:39;;;;;;;5.40;2.90;;;;;;;40.52;41.07;100369.09;117256;1182;23446;-55
2022/05/31 11:44:24;;;;;;;5.20;3.00;;;;;;;40.61;40.80;100368.23;117027;1186;23036;-56
2022/05/31 11:47:04;;;;;;;4.90;2.60;;;;;;;40.62;40.78;100369.16;117019;1182;22095;-55
2022/05/31 11:49:40;;;;;;;7.50;3.10;;;;;;;40.71;40.72;100367.73;117345;1186;22909;-55